sensor_id;sensor_type;location;lat;lon;timestamp;pressure;altitude;pressure_sealevel;temperature
76895;BMP280;65855;42.030;13.078;2023-03-20T00:02:07;94024.31;;;8.37
76895;BMP280;65855;42.030;13.078;2023-03-20T00:04:34;94029.81;;;8.34
76895;BMP280;65855;42.030;13.078;2023-03-20T00:07:00;94028.84;;;8.25
76895;BMP280;65855;42.030;13.078;2023-03-20T00:09:26;94024.28;;;8.22
76895;BMP280;65855;42.030;13.078;2023-03-20T00:11:53;94017.28;;;8.24
76895;BMP280;65855;42.030;13.078;2023-03-20T00:14:21;94023.31;;;8.18
76895;BMP280;65855;42.030;13.078;2023-03-20T00:16:49;94025.53;;;8.10
76895;BMP280;65855;42.030;13.078;2023-03-20T00:19:23;94026.78;;;7.98
76895;BMP280;65855;42.030;13.078;2023-03-20T00:21:49;94028.53;;;7.88
76895;BMP280;65855;42.030;13.078;2023-03-20T00:24:15;94025.53;;;7.95
76895;BMP280;65855;42.030;13.078;2023-03-20T00:26:43;94024.81;;;8.24
76895;BMP280;65855;42.030;13.078;2023-03-20T00:29:17;94026.31;;;8.25
76895;BMP280;65855;42.030;13.078;2023-03-20T00:31:44;94031.59;;;8.24
76895;BMP280;65855;42.030;13.078;2023-03-20T00:34:16;94033.84;;;8.35
76895;BMP280;65855;42.030;13.078;2023-03-20T00:36:43;94034.09;;;8.43
76895;BMP280;65855;42.030;13.078;2023-03-20T00:39:08;94032.84;;;8.51
76895;BMP280;65855;42.030;13.078;2023-03-20T00:46:44;94032.06;;;8.45
76895;BMP280;65855;42.030;13.078;2023-03-20T00:49:11;94026.56;;;8.43
76895;BMP280;65855;42.030;13.078;2023-03-20T00:51:36;94026.53;;;8.48
76895;BMP280;65855;42.030;13.078;2023-03-20T00:54:13;94024.81;;;8.44
76895;BMP280;65855;42.030;13.078;2023-03-20T00:56:44;94028.81;;;8.35
76895;BMP280;65855;42.030;13.078;2023-03-20T00:59:17;94016.78;;;8.37
76895;BMP280;65855;42.030;13.078;2023-03-20T01:01:43;94016.50;;;8.39
76895;BMP280;65855;42.030;13.078;2023-03-20T01:04:14;94016.00;;;8.41
76895;BMP280;65855;42.030;13.078;2023-03-20T01:06:40;94007.97;;;8.39
76895;BMP280;65855;42.030;13.078;2023-03-20T01:09:06;94007.22;;;8.34
76895;BMP280;65855;42.030;13.078;2023-03-20T01:11:31;94005.72;;;8.33
76895;BMP280;65855;42.030;13.078;2023-03-20T01:13:57;94000.19;;;8.31
76895;BMP280;65855;42.030;13.078;2023-03-20T01:16:24;94011.25;;;8.30
76895;BMP280;65855;42.030;13.078;2023-03-20T01:18:50;94002.22;;;8.24
76895;BMP280;65855;42.030;13.078;2023-03-20T01:21:17;93996.44;;;8.24
76895;BMP280;65855;42.030;13.078;2023-03-20T01:23:43;93994.91;;;8.33
76895;BMP280;65855;42.030;13.078;2023-03-20T01:26:31;93991.91;;;8.26
76895;BMP280;65855;42.030;13.078;2023-03-20T01:28:58;93981.59;;;8.27
76895;BMP280;65855;42.030;13.078;2023-03-20T01:31:23;93984.38;;;8.31
76895;BMP280;65855;42.030;13.078;2023-03-20T01:33:49;93986.13;;;8.20
76895;BMP280;65855;42.030;13.078;2023-03-20T01:36:17;93985.13;;;8.16
76895;BMP280;65855;42.030;13.078;2023-03-20T01:38:44;93978.59;;;8.15
76895;BMP280;65855;42.030;13.078;2023-03-20T01:41:14;93977.34;;;8.18
76895;BMP280;65855;42.030;13.078;2023-03-20T01:43:42;93979.59;;;8.29
76895;BMP280;65855;42.030;13.078;2023-03-20T01:53:44;93959.47;;;8.34
76895;BMP280;65855;42.030;13.078;2023-03-20T01:56:14;93953.50;;;8.30
76895;BMP280;65855;42.030;13.078;2023-03-20T01:58:47;93963.53;;;8.25
76895;BMP280;65855;42.030;13.078;2023-03-20T02:01:15;93960.00;;;8.26
76895;BMP280;65855;42.030;13.078;2023-03-20T02:03:43;93944.94;;;8.21
76895;BMP280;65855;42.030;13.078;2023-03-20T02:06:10;93943.44;;;8.20
76895;BMP280;65855;42.030;13.078;2023-03-20T02:08:41;93938.41;;;8.25
76895;BMP280;65855;42.030;13.078;2023-03-20T02:11:08;93951.00;;;8.11
76895;BMP280;65855;42.030;13.078;2023-03-20T02:13:33;93955.25;;;8.10
76895;BMP280;65855;42.030;13.078;2023-03-20T02:16:14;93951.25;;;8.04
76895;BMP280;65855;42.030;13.078;2023-03-20T02:18:42;93945.97;;;8.06
76895;BMP280;65855;42.030;13.078;2023-03-20T02:23:50;93941.44;;;8.08
76895;BMP280;65855;42.030;13.078;2023-03-20T02:26:44;93924.63;;;8.13
76895;BMP280;65855;42.030;13.078;2023-03-20T02:43:03;93917.09;;;7.79
76895;BMP280;65855;42.030;13.078;2023-03-20T02:45:40;93922.84;;;7.84
76895;BMP280;65855;42.030;13.078;2023-03-20T02:48:15;93924.13;;;7.77
76895;BMP280;65855;42.030;13.078;2023-03-20T02:51:15;93923.84;;;7.83
76895;BMP280;65855;42.030;13.078;2023-03-20T02:53:53;93909.81;;;7.82
76895;BMP280;65855;42.030;13.078;2023-03-20T02:56:50;93909.31;;;7.80
76895;BMP280;65855;42.030;13.078;2023-03-20T02:59:35;93909.34;;;7.66
76895;BMP280;65855;42.030;13.078;2023-03-20T03:02:15;93904.03;;;7.62
76895;BMP280;65855;42.030;13.078;2023-03-20T03:04:57;93906.81;;;7.46
76895;BMP280;65855;42.030;13.078;2023-03-20T03:07:27;93912.56;;;7.42
76895;BMP280;65855;42.030;13.078;2023-03-20T03:10:19;93913.06;;;7.48
76895;BMP280;65855;42.030;13.078;2023-03-20T03:12:47;93905.78;;;7.52
76895;BMP280;65855;42.030;13.078;2023-03-20T03:15:32;93906.81;;;7.61
76895;BMP280;65855;42.030;13.078;2023-03-20T03:17:59;93902.03;;;7.64
76895;BMP280;65855;42.030;13.078;2023-03-20T03:20:31;93901.81;;;7.66
76895;BMP280;65855;42.030;13.078;2023-03-20T03:22:58;93905.78;;;7.57
76895;BMP280;65855;42.030;13.078;2023-03-20T03:25:27;93901.53;;;7.43
76895;BMP280;65855;42.030;13.078;2023-03-20T03:30:29;93891.50;;;7.47
76895;BMP280;65855;42.030;13.078;2023-03-20T03:33:23;93891.75;;;7.56
76895;BMP280;65855;42.030;13.078;2023-03-20T03:35:47;93910.31;;;7.65
76895;BMP280;65855;42.030;13.078;2023-03-20T03:43:36;93914.34;;;7.61
76895;BMP280;65855;42.030;13.078;2023-03-20T03:46:18;93907.31;;;7.72
76895;BMP280;65855;42.030;13.078;2023-03-20T03:48:51;93903.28;;;7.57
76895;BMP280;65855;42.030;13.078;2023-03-20T03:51:23;93902.56;;;7.46
76895;BMP280;65855;42.030;13.078;2023-03-20T03:53:54;93904.31;;;7.46
76895;BMP280;65855;42.030;13.078;2023-03-20T03:56:25;93904.81;;;7.48
76895;BMP280;65855;42.030;13.078;2023-03-20T03:58:54;93902.28;;;7.48
76895;BMP280;65855;42.030;13.078;2023-03-20T04:01:21;93901.53;;;7.43
76895;BMP280;65855;42.030;13.078;2023-03-20T04:03:53;93898.03;;;7.43
76895;BMP280;65855;42.030;13.078;2023-03-20T04:06:20;93901.28;;;7.49
76895;BMP280;65855;42.030;13.078;2023-03-20T04:08:46;93903.53;;;7.36
76895;BMP280;65855;42.030;13.078;2023-03-20T04:11:16;93895.66;;;6.83
76895;BMP280;65855;42.030;13.078;2023-03-20T04:13:42;93879.56;;;6.65
76895;BMP280;65855;42.030;13.078;2023-03-20T04:16:12;93876.13;;;6.90
76895;BMP280;65855;42.030;13.078;2023-03-20T04:18:38;93873.63;;;6.85
76895;BMP280;65855;42.030;13.078;2023-03-20T04:21:04;93878.66;;;6.95
76895;BMP280;65855;42.030;13.078;2023-03-20T04:23:30;93871.16;;;7.10
76895;BMP280;65855;42.030;13.078;2023-03-20T04:25:55;93870.16;;;7.16
76895;BMP280;65855;42.030;13.078;2023-03-20T04:28:20;93870.19;;;7.35
76895;BMP280;65855;42.030;13.078;2023-03-20T04:30:52;93877.19;;;7.38
76895;BMP280;65855;42.030;13.078;2023-03-20T04:33:17;93866.16;;;7.29
76895;BMP280;65855;42.030;13.078;2023-03-20T04:35:43;93867.66;;;7.45
76895;BMP280;65855;42.030;13.078;2023-03-20T04:38:08;93868.16;;;7.22
76895;BMP280;65855;42.030;13.078;2023-03-20T04:40:33;93863.91;;;7.08
76895;BMP280;65855;42.030;13.078;2023-03-20T04:42:59;93874.16;;;7.07
76895;BMP280;65855;42.030;13.078;2023-03-20T04:45:25;93879.16;;;7.07
76895;BMP280;65855;42.030;13.078;2023-03-20T04:47:50;93870.66;;;7.03
76895;BMP280;65855;42.030;13.078;2023-03-20T04:50:15;93875.16;;;7.06
76895;BMP280;65855;42.030;13.078;2023-03-20T04:52:41;93871.91;;;7.10
76895;BMP280;65855;42.030;13.078;2023-03-20T04:55:06;93872.66;;;7.11
76895;BMP280;65855;42.030;13.078;2023-03-20T04:57:32;93884.66;;;6.99
76895;BMP280;65855;42.030;13.078;2023-03-20T04:59:57;93882.28;;;6.53
76895;BMP280;65855;42.030;13.078;2023-03-20T05:02:23;93879.75;;;6.44
76895;BMP280;65855;42.030;13.078;2023-03-20T05:04:48;93890.63;;;6.73
76895;BMP280;65855;42.030;13.078;2023-03-20T05:07:14;93886.66;;;6.92
76895;BMP280;65855;42.030;13.078;2023-03-20T05:09:40;93895.22;;;7.06
76895;BMP280;65855;42.030;13.078;2023-03-20T05:12:05;93888.72;;;7.19
76895;BMP280;65855;42.030;13.078;2023-03-20T05:14:31;93888.72;;;7.29
76895;BMP280;65855;42.030;13.078;2023-03-20T05:16:56;93896.25;;;7.29
76895;BMP280;65855;42.030;13.078;2023-03-20T05:19:22;93896.28;;;7.34
76895;BMP280;65855;42.030;13.078;2023-03-20T05:21:47;93899.28;;;7.41
76895;BMP280;65855;42.030;13.078;2023-03-20T05:24:13;93896.78;;;7.46
76895;BMP280;65855;42.030;13.078;2023-03-20T05:26:38;93897.50;;;7.51
76895;BMP280;65855;42.030;13.078;2023-03-20T05:29:04;93899.03;;;7.52
76895;BMP280;65855;42.030;13.078;2023-03-20T05:31:29;93901.28;;;7.29
76895;BMP280;65855;42.030;13.078;2023-03-20T05:33:55;93906.03;;;7.26
76895;BMP280;65855;42.030;13.078;2023-03-20T05:36:21;93907.53;;;7.27
76895;BMP280;65855;42.030;13.078;2023-03-20T05:38:47;93908.78;;;7.24
76895;BMP280;65855;42.030;13.078;2023-03-20T05:41:12;93923.09;;;7.34
76895;BMP280;65855;42.030;13.078;2023-03-20T05:43:37;93927.88;;;7.35
76895;BMP280;65855;42.030;13.078;2023-03-20T05:46:03;93920.84;;;7.52
76895;BMP280;65855;42.030;13.078;2023-03-20T05:48:28;93924.13;;;7.67
76895;BMP280;65855;42.030;13.078;2023-03-20T05:50:54;93928.13;;;7.63
76895;BMP280;65855;42.030;13.078;2023-03-20T05:53:20;93932.13;;;7.49
76895;BMP280;65855;42.030;13.078;2023-03-20T05:55:45;93921.63;;;7.52
76895;BMP280;65855;42.030;13.078;2023-03-20T05:58:11;93927.63;;;7.46
76895;BMP280;65855;42.030;13.078;2023-03-20T06:00:38;93925.88;;;7.42
76895;BMP280;65855;42.030;13.078;2023-03-20T06:03:03;93929.38;;;7.51
76895;BMP280;65855;42.030;13.078;2023-03-20T06:05:31;93928.13;;;7.53
76895;BMP280;65855;42.030;13.078;2023-03-20T06:07:57;93926.88;;;7.56
76895;BMP280;65855;42.030;13.078;2023-03-20T06:10:22;93921.34;;;7.59
76895;BMP280;65855;42.030;13.078;2023-03-20T06:12:48;93929.41;;;7.61
76895;BMP280;65855;42.030;13.078;2023-03-20T06:15:14;93923.88;;;7.64
76895;BMP280;65855;42.030;13.078;2023-03-20T06:17:39;93925.38;;;7.65
76895;BMP280;65855;42.030;13.078;2023-03-20T06:20:05;93926.91;;;7.66
76895;BMP280;65855;42.030;13.078;2023-03-20T06:22:31;93925.34;;;7.84
76895;BMP280;65855;42.030;13.078;2023-03-20T06:24:56;93923.88;;;7.88
76895;BMP280;65855;42.030;13.078;2023-03-20T06:27:22;93922.38;;;7.72
76895;BMP280;65855;42.030;13.078;2023-03-20T06:29:47;93918.84;;;7.83
76895;BMP280;65855;42.030;13.078;2023-03-20T06:32:13;93929.38;;;7.90
76895;BMP280;65855;42.030;13.078;2023-03-20T06:34:39;93931.16;;;7.80
76895;BMP280;65855;42.030;13.078;2023-03-20T06:37:05;93923.09;;;7.78
76895;BMP280;65855;42.030;13.078;2023-03-20T06:39:31;93926.63;;;7.82
76895;BMP280;65855;42.030;13.078;2023-03-20T06:41:56;93925.13;;;7.86
76895;BMP280;65855;42.030;13.078;2023-03-20T06:44:21;93922.84;;;7.89
76895;BMP280;65855;42.030;13.078;2023-03-20T06:46:47;93918.34;;;7.86
76895;BMP280;65855;42.030;13.078;2023-03-20T06:49:12;93928.88;;;7.83
76895;BMP280;65855;42.030;13.078;2023-03-20T06:51:38;93924.59;;;7.84
76895;BMP280;65855;42.030;13.078;2023-03-20T06:54:03;93929.91;;;7.87
76895;BMP280;65855;42.030;13.078;2023-03-20T06:56:29;93929.91;;;7.92
76895;BMP280;65855;42.030;13.078;2023-03-20T06:58:55;93929.63;;;7.84
76895;BMP280;65855;42.030;13.078;2023-03-20T07:01:20;93923.09;;;7.83
76895;BMP280;65855;42.030;13.078;2023-03-20T07:03:46;93927.38;;;7.82
76895;BMP280;65855;42.030;13.078;2023-03-20T07:06:11;93925.34;;;7.84
76895;BMP280;65855;42.030;13.078;2023-03-20T07:08:38;93918.84;;;7.83
76895;BMP280;65855;42.030;13.078;2023-03-20T07:11:04;93918.34;;;7.81
76895;BMP280;65855;42.030;13.078;2023-03-20T07:13:30;93928.13;;;7.83
76895;BMP280;65855;42.030;13.078;2023-03-20T07:15:57;93926.13;;;7.90
76895;BMP280;65855;42.030;13.078;2023-03-20T07:18:26;93928.13;;;7.97
76895;BMP280;65855;42.030;13.078;2023-03-20T07:20:52;93927.38;;;7.92
76895;BMP280;65855;42.030;13.078;2023-03-20T07:23:19;93929.91;;;7.92
76895;BMP280;65855;42.030;13.078;2023-03-20T07:25:45;93931.41;;;7.88
76895;BMP280;65855;42.030;13.078;2023-03-20T07:28:11;93934.41;;;7.80
76895;BMP280;65855;42.030;13.078;2023-03-20T07:30:36;93942.19;;;7.89
76895;BMP280;65855;42.030;13.078;2023-03-20T07:33:02;93939.94;;;7.92
76895;BMP280;65855;42.030;13.078;2023-03-20T07:35:27;93939.16;;;7.96
76895;BMP280;65855;42.030;13.078;2023-03-20T07:37:53;93942.69;;;8.00
76895;BMP280;65855;42.030;13.078;2023-03-20T07:40:18;93945.97;;;8.06
76895;BMP280;65855;42.030;13.078;2023-03-20T07:42:44;93937.94;;;8.18
76895;BMP280;65855;42.030;13.078;2023-03-20T07:45:11;93940.19;;;8.25
76895;BMP280;65855;42.030;13.078;2023-03-20T07:47:38;93935.66;;;8.32
76895;BMP280;65855;42.030;13.078;2023-03-20T07:50:04;93929.88;;;8.31
76895;BMP280;65855;42.030;13.078;2023-03-20T07:52:29;93928.84;;;8.32
76895;BMP280;65855;42.030;13.078;2023-03-20T07:54:55;93919.28;;;8.34
76895;BMP280;65855;42.030;13.078;2023-03-20T07:57:21;93924.78;;;8.46
76895;BMP280;65855;42.030;13.078;2023-03-20T07:59:46;93925.06;;;8.49
76895;BMP280;65855;42.030;13.078;2023-03-20T08:02:16;93931.06;;;8.53
76895;BMP280;65855;42.030;13.078;2023-03-20T08:04:42;93924.53;;;8.52
76895;BMP280;65855;42.030;13.078;2023-03-20T08:07:08;93922.75;;;8.63
76895;BMP280;65855;42.030;13.078;2023-03-20T08:09:34;93928.22;;;8.74
76895;BMP280;65855;42.030;13.078;2023-03-20T08:11:59;93916.09;;;8.86
76895;BMP280;65855;42.030;13.078;2023-03-20T08:14:25;93924.13;;;8.93
76895;BMP280;65855;42.030;13.078;2023-03-20T08:16:51;93928.06;;;9.13
76895;BMP280;65855;42.030;13.078;2023-03-20T08:19:16;93927.00;;;9.19
76895;BMP280;65855;42.030;13.078;2023-03-20T08:21:41;93923.25;;;9.17
76895;BMP280;65855;42.030;13.078;2023-03-20T08:24:07;93928.44;;;9.35
76895;BMP280;65855;42.030;13.078;2023-03-20T08:26:33;93931.22;;;9.34
76895;BMP280;65855;42.030;13.078;2023-03-20T08:28:59;93926.09;;;9.43
76895;BMP280;65855;42.030;13.078;2023-03-20T08:31:24;93925.72;;;9.27
76895;BMP280;65855;42.030;13.078;2023-03-20T08:33:50;93928.63;;;9.43
76895;BMP280;65855;42.030;13.078;2023-03-20T08:36:16;93929.19;;;9.31
76895;BMP280;65855;42.030;13.078;2023-03-20T08:38:44;93931.03;;;9.20
76895;BMP280;65855;42.030;13.078;2023-03-20T08:41:10;93927.50;;;9.26
76895;BMP280;65855;42.030;13.078;2023-03-20T08:43:35;93924.84;;;9.46
76895;BMP280;65855;42.030;13.078;2023-03-20T08:46:01;93930.09;;;9.49
76895;BMP280;65855;42.030;13.078;2023-03-20T08:48:26;93923.81;;;9.47
76895;BMP280;65855;42.030;13.078;2023-03-20T08:50:52;93925.97;;;9.63
76895;BMP280;65855;42.030;13.078;2023-03-20T08:53:17;93928.56;;;9.53
76895;BMP280;65855;42.030;13.078;2023-03-20T08:55:50;93921.91;;;9.67
76895;BMP280;65855;42.030;13.078;2023-03-20T08:58:16;93927.22;;;9.65
76895;BMP280;65855;42.030;13.078;2023-03-20T09:00:42;93920.16;;;9.67
76895;BMP280;65855;42.030;13.078;2023-03-20T09:03:16;93918.56;;;9.76
76895;BMP280;65855;42.030;13.078;2023-03-20T09:05:43;93921.66;;;9.68
76895;BMP280;65855;42.030;13.078;2023-03-20T09:08:09;93927.22;;;9.65
76895;BMP280;65855;42.030;13.078;2023-03-20T09:10:35;93928.19;;;9.69
76895;BMP280;65855;42.030;13.078;2023-03-20T09:13:00;93916.13;;;9.66
76895;BMP280;65855;42.030;13.078;2023-03-20T09:15:26;93919.13;;;9.68
76895;BMP280;65855;42.030;13.078;2023-03-20T09:17:52;93910.34;;;9.66
76895;BMP280;65855;42.030;13.078;2023-03-20T09:20:17;93911.59;;;10.01
76895;BMP280;65855;42.030;13.078;2023-03-20T09:22:43;93906.50;;;10.06
76895;BMP280;65855;42.030;13.078;2023-03-20T09:25:10;93909.56;;;10.31
76895;BMP280;65855;42.030;13.078;2023-03-20T09:27:36;93921.41;;;10.54
76895;BMP280;65855;42.030;13.078;2023-03-20T09:30:01;93924.31;;;10.65
76895;BMP280;65855;42.030;13.078;2023-03-20T09:32:27;93919.25;;;10.65
76895;BMP280;65855;42.030;13.078;2023-03-20T09:34:52;93921.31;;;10.63
76895;BMP280;65855;42.030;13.078;2023-03-20T09:37:18;93923.03;;;10.68
76895;BMP280;65855;42.030;13.078;2023-03-20T09:39:43;93929.34;;;10.65
76895;BMP280;65855;42.030;13.078;2023-03-20T09:45:26;93917.44;;;10.71
76895;BMP280;65855;42.030;13.078;2023-03-20T09:48:05;93906.88;;;10.69
76895;BMP280;65855;42.030;13.078;2023-03-20T09:50:40;93907.19;;;10.62
76895;BMP280;65855;42.030;13.078;2023-03-20T09:53:17;93904.34;;;10.69
76895;BMP280;65855;42.030;13.078;2023-03-20T09:55:44;93901.34;;;10.67
76895;BMP280;65855;42.030;13.078;2023-03-20T09:58:20;93902.91;;;10.63
76895;BMP280;65855;42.030;13.078;2023-03-20T10:00:47;93905.38;;;10.68
76895;BMP280;65855;42.030;13.078;2023-03-20T10:03:38;93897.25;;;10.94
76895;BMP280;65855;42.030;13.078;2023-03-20T10:06:11;93898.81;;;11.08
76895;BMP280;65855;42.030;13.078;2023-03-20T10:08:38;93889.69;;;11.30
76895;BMP280;65855;42.030;13.078;2023-03-20T10:19:34;93892.44;;;11.83
76895;BMP280;65855;42.030;13.078;2023-03-20T10:22:06;93887.56;;;11.73
76895;BMP280;65855;42.030;13.078;2023-03-20T10:24:40;93888.56;;;11.90
76895;BMP280;65855;42.030;13.078;2023-03-20T10:27:20;93887.63;;;12.00
76895;BMP280;65855;42.030;13.078;2023-03-20T10:29:57;93883.72;;;12.07
76895;BMP280;65855;42.030;13.078;2023-03-20T10:32:49;93875.75;;;12.13
76895;BMP280;65855;42.030;13.078;2023-03-20T10:35:32;93871.75;;;12.12
76895;BMP280;65855;42.030;13.078;2023-03-20T10:38:11;93866.53;;;12.48
76895;BMP280;65855;42.030;13.078;2023-03-20T10:40:41;93854.13;;;12.60
76895;BMP280;65855;42.030;13.078;2023-03-20T10:45:49;93851.16;;;12.45
76895;BMP280;65855;42.030;13.078;2023-03-20T10:48:22;93842.75;;;12.49
76895;BMP280;65855;42.030;13.078;2023-03-20T10:50:58;93842.75;;;12.36
76895;BMP280;65855;42.030;13.078;2023-03-20T10:53:42;93832.03;;;12.66
76895;BMP280;65855;42.030;13.078;2023-03-20T10:56:14;93841.19;;;13.01
76895;BMP280;65855;42.030;13.078;2023-03-20T10:58:43;93841.69;;;13.25
76895;BMP280;65855;42.030;13.078;2023-03-20T11:01:11;93832.72;;;13.41
76895;BMP280;65855;42.030;13.078;2023-03-20T11:03:36;93826.56;;;13.55
76895;BMP280;65855;42.030;13.078;2023-03-20T11:06:20;93822.88;;;13.39
76895;BMP280;65855;42.030;13.078;2023-03-20T11:08:51;93821.31;;;13.30
76895;BMP280;65855;42.030;13.078;2023-03-20T11:11:25;93829.78;;;13.25
76895;BMP280;65855;42.030;13.078;2023-03-20T11:13:52;93827.06;;;13.65
76895;BMP280;65855;42.030;13.078;2023-03-20T11:16:24;93827.56;;;13.45
76895;BMP280;65855;42.030;13.078;2023-03-20T11:18:54;93821.03;;;12.35
76895;BMP280;65855;42.030;13.078;2023-03-20T11:21:25;93839.81;;;11.22
76895;BMP280;65855;42.030;13.078;2023-03-20T11:23:52;93834.19;;;10.53
76895;BMP280;65855;42.030;13.078;2023-03-20T11:26:33;93836.34;;;10.41
76895;BMP280;65855;42.030;13.078;2023-03-20T11:29:00;93833.34;;;10.80
76895;BMP280;65855;42.030;13.078;2023-03-20T11:31:37;93834.66;;;10.55
76895;BMP280;65855;42.030;13.078;2023-03-20T11:36:30;93820.28;;;10.37
76895;BMP280;65855;42.030;13.078;2023-03-20T11:39:10;93823.88;;;10.31
76895;BMP280;65855;42.030;13.078;2023-03-20T11:44:30;93810.25;;;10.91
76895;BMP280;65855;42.030;13.078;2023-03-20T11:49:29;93815.81;;;10.52
76895;BMP280;65855;42.030;13.078;2023-03-20T11:51:59;93810.81;;;10.88
76895;BMP280;65855;42.030;13.078;2023-03-20T11:54:27;93809.81;;;11.21
76895;BMP280;65855;42.030;13.078;2023-03-20T11:56:58;93794.88;;;12.00
76895;BMP280;65855;42.030;13.078;2023-03-20T11:59:29;93786.75;;;12.43
76895;BMP280;65855;42.030;13.078;2023-03-20T12:01:56;93785.88;;;12.73
76895;BMP280;65855;42.030;13.078;2023-03-20T12:04:36;93784.97;;;12.91
76895;BMP280;65855;42.030;13.078;2023-03-20T12:09:51;93775.81;;;13.38
76895;BMP280;65855;42.030;13.078;2023-03-20T12:15:38;93772.41;;;13.72
76895;BMP280;65855;42.030;13.078;2023-03-20T12:18:33;93761.16;;;14.25
76895;BMP280;65855;42.030;13.078;2023-03-20T12:23:50;93754.97;;;14.64
76895;BMP280;65855;42.030;13.078;2023-03-20T12:26:23;93760.25;;;15.17
76895;BMP280;65855;42.030;13.078;2023-03-20T12:29:14;93757.69;;;15.01
76895;BMP280;65855;42.030;13.078;2023-03-20T12:31:47;93757.09;;;14.87
76895;BMP280;65855;42.030;13.078;2023-03-20T12:34:20;93755.84;;;14.51
76895;BMP280;65855;42.030;13.078;2023-03-20T12:36:50;93757.34;;;14.36
76895;BMP280;65855;42.030;13.078;2023-03-20T12:39:31;93757.56;;;13.88
76895;BMP280;65855;42.030;13.078;2023-03-20T12:48:04;93753.06;;;13.03
76895;BMP280;65855;42.030;13.078;2023-03-20T12:50:55;93740.34;;;13.17
76895;BMP280;65855;42.030;13.078;2023-03-20T12:56:51;93752.22;;;12.60
76895;BMP280;65855;42.030;13.078;2023-03-20T12:59:24;93749.84;;;12.42
76895;BMP280;65855;42.030;13.078;2023-03-20T13:02:02;93748.13;;;12.50
76895;BMP280;65855;42.030;13.078;2023-03-20T13:04:45;93739.78;;;12.63
76895;BMP280;65855;42.030;13.078;2023-03-20T13:07:19;93743.69;;;12.69
76895;BMP280;65855;42.030;13.078;2023-03-20T13:10:23;93752.38;;;12.90
76895;BMP280;65855;42.030;13.078;2023-03-20T13:42:21;93745.63;;;12.85
76895;BMP280;65855;42.030;13.078;2023-03-20T13:44:48;93743.00;;;12.90
76895;BMP280;65855;42.030;13.078;2023-03-20T13:47:19;93732.97;;;12.85
76895;BMP280;65855;42.030;13.078;2023-03-20T13:52:46;93739.81;;;12.85
76895;BMP280;65855;42.030;13.078;2023-03-20T13:55:23;93738.88;;;12.33
76895;BMP280;65855;42.030;13.078;2023-03-20T14:05:46;93734.81;;;12.10
76895;BMP280;65855;42.030;13.078;2023-03-20T14:11:27;93728.13;;;12.14
76895;BMP280;65855;42.030;13.078;2023-03-20T14:14:11;93727.78;;;12.07
76895;BMP280;65855;42.030;13.078;2023-03-20T14:16:39;93722.94;;;11.98
76895;BMP280;65855;42.030;13.078;2023-03-20T14:19:19;93724.41;;;11.85
76895;BMP280;65855;42.030;13.078;2023-03-20T14:21:50;93716.56;;;11.87
76895;BMP280;65855;42.030;13.078;2023-03-20T14:24:17;93725.91;;;12.00
76895;BMP280;65855;42.030;13.078;2023-03-20T14:26:56;93724.97;;;11.82
76895;BMP280;65855;42.030;13.078;2023-03-20T14:34:57;93725.13;;;11.15
76895;BMP280;65855;42.030;13.078;2023-03-20T14:37:44;93728.53;;;10.74
76895;BMP280;65855;42.030;13.078;2023-03-20T14:40:19;93716.47;;;11.34
76895;BMP280;65855;42.030;13.078;2023-03-20T14:42:54;93724.41;;;11.46
76895;BMP280;65855;42.030;13.078;2023-03-20T14:45:43;93717.22;;;11.34
76895;BMP280;65855;42.030;13.078;2023-03-20T14:48:30;93715.00;;;11.33
76895;BMP280;65855;42.030;13.078;2023-03-20T14:51:23;93730.22;;;11.59
76895;BMP280;65855;42.030;13.078;2023-03-20T14:56:46;93722.50;;;11.38
76895;BMP280;65855;42.030;13.078;2023-03-20T14:59:13;93725.53;;;11.22
76895;BMP280;65855;42.030;13.078;2023-03-20T15:01:52;93723.34;;;11.15
76895;BMP280;65855;42.030;13.078;2023-03-20T15:07:16;93721.91;;;11.27
76895;BMP280;65855;42.030;13.078;2023-03-20T15:09:50;93718.91;;;11.26
76895;BMP280;65855;42.030;13.078;2023-03-20T15:12:23;93714.97;;;11.20
76895;BMP280;65855;42.030;13.078;2023-03-20T15:14:51;93717.13;;;10.95
76895;BMP280;65855;42.030;13.078;2023-03-20T15:17:27;93712.22;;;10.85
76895;BMP280;65855;42.030;13.078;2023-03-20T15:20:20;93718.03;;;10.67
76895;BMP280;65855;42.030;13.078;2023-03-20T15:22:51;93716.19;;;10.55
76895;BMP280;65855;42.030;13.078;2023-03-20T15:25:21;93708.50;;;10.46
76895;BMP280;65855;42.030;13.078;2023-03-20T15:27:46;93713.34;;;10.43
76895;BMP280;65855;42.030;13.078;2023-03-20T15:30:16;93716.75;;;10.52
76895;BMP280;65855;42.030;13.078;2023-03-20T15:32:42;93712.81;;;10.64
76895;BMP280;65855;42.030;13.078;2023-03-20T15:35:22;93714.84;;;10.62
76895;BMP280;65855;42.030;13.078;2023-03-20T15:37:50;93718.19;;;10.76
76895;BMP280;65855;42.030;13.078;2023-03-20T15:40:30;93714.69;;;10.90
76895;BMP280;65855;42.030;13.078;2023-03-20T15:43:03;93714.16;;;10.75
76895;BMP280;65855;42.030;13.078;2023-03-20T15:45:34;93713.88;;;10.58
76895;BMP280;65855;42.030;13.078;2023-03-20T15:48:07;93714.34;;;10.60
76895;BMP280;65855;42.030;13.078;2023-03-20T15:50:35;93713.59;;;10.59
76895;BMP280;65855;42.030;13.078;2023-03-20T15:53:03;93719.75;;;10.54
76895;BMP280;65855;42.030;13.078;2023-03-20T15:55:30;93719.34;;;10.47
76895;BMP280;65855;42.030;13.078;2023-03-20T15:57:57;93716.47;;;10.35
76895;BMP280;65855;42.030;13.078;2023-03-20T16:00:33;93713.75;;;10.32
76895;BMP280;65855;42.030;13.078;2023-03-20T16:03:03;93719.06;;;10.30
76895;BMP280;65855;42.030;13.078;2023-03-20T16:05:30;93713.69;;;10.36
76895;BMP280;65855;42.030;13.078;2023-03-20T16:07:56;93715.25;;;10.51
76895;BMP280;65855;42.030;13.078;2023-03-20T16:10:30;93716.34;;;10.45
76895;BMP280;65855;42.030;13.078;2023-03-20T16:12:56;93711.00;;;10.28
76895;BMP280;65855;42.030;13.078;2023-03-20T16:15:26;93713.34;;;10.25
76895;BMP280;65855;42.030;13.078;2023-03-20T16:17:57;93711.97;;;10.32
76895;BMP280;65855;42.030;13.078;2023-03-20T16:20:26;93711.16;;;10.18
76895;BMP280;65855;42.030;13.078;2023-03-20T16:22:58;93712.09;;;10.22
76895;BMP280;65855;42.030;13.078;2023-03-20T16:25:24;93714.41;;;10.19
76895;BMP280;65855;42.030;13.078;2023-03-20T16:27:50;93716.91;;;9.78
76895;BMP280;65855;42.030;13.078;2023-03-20T16:30:25;93710.09;;;9.78
76895;BMP280;65855;42.030;13.078;2023-03-20T16:32:59;93715.69;;;9.98